Terminal Aerodrome Forecast
Issued by NWS

Home | Current Version | Previous Version | Text Only | Print | Product List | Glossary On
Versions: 1 2 3 4 5 6 7 8 9 10 11 12 13
000
FTUS42 KMLB 290520
TAFSFB
TAF
KSFB 290520Z 2906/3006 18005KT P6SM FEW060
     FM291500 VRB05KT P6SM FEW045
     FM292100 12009KT P6SM SCT050
     FM300100 VRB04KT P6SM FEW060=

USA.gov is the U.S. government's official web portal to all federal, state and local government web resources and services.